sensor_id;sensor_type;location;lat;lon;timestamp;pressure;altitude;pressure_sealevel;temperature;humidity
73457;BME280;61691;53.072;6.582;2022-12-20T00:01:22;101187.38;;;9.12;77.94
73457;BME280;61691;53.072;6.582;2022-12-20T00:03:51;101158.75;;;8.95;78.10
73457;BME280;61691;53.072;6.582;2022-12-20T00:06:19;101175.09;;;9.11;78.39
73457;BME280;61691;53.072;6.582;2022-12-20T00:08:51;101125.66;;;8.78;77.90
73457;BME280;61691;53.072;6.582;2022-12-20T00:11:18;101162.47;;;9.03;78.54
73457;BME280;61691;53.072;6.582;2022-12-20T00:13:45;101165.25;;;9.02;78.14
73457;BME280;61691;53.072;6.582;2022-12-20T00:16:23;101161.63;;;9.03;78.37
73457;BME280;61691;53.072;6.582;2022-12-20T00:18:53;101178.47;;;9.13;78.63
73457;BME280;61691;53.072;6.582;2022-12-20T00:21:20;101177.16;;;9.18;77.98
73457;BME280;61691;53.072;6.582;2022-12-20T00:23:47;101155.88;;;9.09;78.16
73457;BME280;61691;53.072;6.582;2022-12-20T00:26:17;101175.47;;;9.17;78.07
73457;BME280;61691;53.072;6.582;2022-12-20T00:28:45;101150.56;;;8.98;78.11
73457;BME280;61691;53.072;6.582;2022-12-20T00:31:15;101170.44;;;9.14;78.01
73457;BME280;61691;53.072;6.582;2022-12-20T00:33:45;101161.88;;;9.11;78.21
73457;BME280;61691;53.072;6.582;2022-12-20T00:36:12;101157.31;;;9.13;78.26
73457;BME280;61691;53.072;6.582;2022-12-20T00:38:40;101164.09;;;9.17;77.86
73457;BME280;61691;53.072;6.582;2022-12-20T00:41:09;101171.03;;;9.18;77.67
73457;BME280;61691;53.072;6.582;2022-12-20T00:43:37;101172.72;;;9.19;77.64
73457;BME280;61691;53.072;6.582;2022-12-20T00:46:05;101153.72;;;9.14;77.48
73457;BME280;61691;53.072;6.582;2022-12-20T00:48:33;101142.66;;;9.09;77.78
73457;BME280;61691;53.072;6.582;2022-12-20T00:51:09;101151.34;;;9.22;77.70
73457;BME280;61691;53.072;6.582;2022-12-20T00:53:36;101147.00;;;9.21;76.99
73457;BME280;61691;53.072;6.582;2022-12-20T00:56:04;101147.75;;;9.23;77.46
73457;BME280;61691;53.072;6.582;2022-12-20T00:58:36;101144.34;;;9.21;77.57
73457;BME280;61691;53.072;6.582;2022-12-20T01:01:06;101127.41;;;9.23;76.85
73457;BME280;61691;53.072;6.582;2022-12-20T01:03:33;101130.66;;;9.16;77.20
73457;BME280;61691;53.072;6.582;2022-12-20T01:06:01;101125.00;;;9.20;77.02
73457;BME280;61691;53.072;6.582;2022-12-20T01:08:29;101133.78;;;9.21;76.74
73457;BME280;61691;53.072;6.582;2022-12-20T01:11:17;101120.78;;;9.18;76.55
73457;BME280;61691;53.072;6.582;2022-12-20T01:13:47;101114.28;;;9.11;76.79
73457;BME280;61691;53.072;6.582;2022-12-20T01:16:20;101147.47;;;9.26;76.52
73457;BME280;61691;53.072;6.582;2022-12-20T01:18:48;101145.78;;;9.25;75.75
73457;BME280;61691;53.072;6.582;2022-12-20T01:21:17;101153.72;;;9.25;76.16
73457;BME280;61691;53.072;6.582;2022-12-20T01:23:44;101152.06;;;9.24;76.20
73457;BME280;61691;53.072;6.582;2022-12-20T01:26:14;101137.03;;;9.24;76.09
73457;BME280;61691;53.072;6.582;2022-12-20T01:28:42;101152.06;;;9.24;76.32
73457;BME280;61691;53.072;6.582;2022-12-20T01:31:15;101121.03;;;9.15;75.99
73457;BME280;61691;53.072;6.582;2022-12-20T01:33:43;101142.44;;;9.23;76.07
73457;BME280;61691;53.072;6.582;2022-12-20T01:36:16;101134.50;;;9.23;75.95
73457;BME280;61691;53.072;6.582;2022-12-20T01:38:43;101127.66;;;9.20;76.42
73457;BME280;61691;53.072;6.582;2022-12-20T01:41:16;101113.22;;;9.13;76.51
73457;BME280;61691;53.072;6.582;2022-12-20T01:46:14;101119.47;;;9.23;76.04
73457;BME280;61691;53.072;6.582;2022-12-20T01:48:43;101118.28;;;9.27;76.18
73457;BME280;61691;53.072;6.582;2022-12-20T01:51:13;101093.63;;;9.16;76.13
73457;BME280;61691;53.072;6.582;2022-12-20T01:53:40;101100.97;;;9.23;76.11
73457;BME280;61691;53.072;6.582;2022-12-20T01:56:07;101090.97;;;9.16;75.59
73457;BME280;61691;53.072;6.582;2022-12-20T01:58:36;101101.81;;;9.24;75.90
73457;BME280;61691;53.072;6.582;2022-12-20T02:01:05;101084.97;;;9.14;75.68
73457;BME280;61691;53.072;6.582;2022-12-20T02:03:32;101098.53;;;9.20;75.74
73457;BME280;61691;53.072;6.582;2022-12-20T02:06:13;101100.34;;;9.20;75.62
73457;BME280;61691;53.072;6.582;2022-12-20T02:08:40;101101.56;;;9.27;75.87
73457;BME280;61691;53.072;6.582;2022-12-20T02:16:29;101077.75;;;9.16;75.65
73457;BME280;61691;53.072;6.582;2022-12-20T02:19:35;101101.06;;;9.33;75.54
73457;BME280;61691;53.072;6.582;2022-12-20T02:22:15;101100.22;;;9.32;75.76
73457;BME280;61691;53.072;6.582;2022-12-20T02:30:21;101048.16;;;9.11;75.31
73457;BME280;61691;53.072;6.582;2022-12-20T02:32:58;101086.19;;;9.32;75.79
73457;BME280;61691;53.072;6.582;2022-12-20T02:35:28;101084.97;;;9.36;75.49
73457;BME280;61691;53.072;6.582;2022-12-20T02:37:59;101082.31;;;9.25;75.56
73457;BME280;61691;53.072;6.582;2022-12-20T02:40:54;101086.88;;;9.34;75.38
73457;BME280;61691;53.072;6.582;2022-12-20T02:43:23;101096.97;;;9.40;75.60
73457;BME280;61691;53.072;6.582;2022-12-20T02:46:12;101084.75;;;9.39;76.00
73457;BME280;61691;53.072;6.582;2022-12-20T02:48:40;101081.38;;;9.37;75.66
73457;BME280;61691;53.072;6.582;2022-12-20T02:51:08;101082.44;;;9.35;75.52
73457;BME280;61691;53.072;6.582;2022-12-20T02:53:37;101078.00;;;9.35;75.64
73457;BME280;61691;53.072;6.582;2022-12-20T02:56:19;101082.19;;;9.38;76.45
73457;BME280;61691;53.072;6.582;2022-12-20T02:59:11;101084.75;;;9.39;76.05
73457;BME280;61691;53.072;6.582;2022-12-20T03:01:44;101075.22;;;9.37;76.23
73457;BME280;61691;53.072;6.582;2022-12-20T03:04:13;101078.94;;;9.34;76.12
73457;BME280;61691;53.072;6.582;2022-12-20T03:06:58;101081.38;;;9.37;76.44
73457;BME280;61691;53.072;6.582;2022-12-20T03:09:26;101060.69;;;9.31;76.18
73457;BME280;61691;53.072;6.582;2022-12-20T03:11:53;101064.88;;;9.33;76.34
73457;BME280;61691;53.072;6.582;2022-12-20T03:14:20;101065.59;;;9.36;76.04
73457;BME280;61691;53.072;6.582;2022-12-20T03:16:47;101038.78;;;9.29;76.48
73457;BME280;61691;53.072;6.582;2022-12-20T03:19:14;101038.44;;;9.22;76.92
73457;BME280;61691;53.072;6.582;2022-12-20T03:21:41;101059.34;;;9.37;76.57
73457;BME280;61691;53.072;6.582;2022-12-20T03:24:08;101029.16;;;9.28;76.83
73457;BME280;61691;53.072;6.582;2022-12-20T03:26:36;101037.84;;;9.30;77.31
73457;BME280;61691;53.072;6.582;2022-12-20T03:29:03;101056.81;;;9.35;77.13
73457;BME280;61691;53.072;6.582;2022-12-20T03:31:30;101044.81;;;9.31;77.06
73457;BME280;61691;53.072;6.582;2022-12-20T03:33:57;101037.84;;;9.30;77.42
73457;BME280;61691;53.072;6.582;2022-12-20T03:36:24;101024.38;;;9.22;77.65
73457;BME280;61691;53.072;6.582;2022-12-20T03:38:51;101042.63;;;9.36;77.52
73457;BME280;61691;53.072;6.582;2022-12-20T03:41:19;101059.00;;;9.30;77.81
73457;BME280;61691;53.072;6.582;2022-12-20T03:43:48;101034.94;;;9.22;78.25
73457;BME280;61691;53.072;6.582;2022-12-20T03:46:15;101032.53;;;9.30;78.08
73457;BME280;61691;53.072;6.582;2022-12-20T03:48:42;101026.41;;;9.29;78.13
73457;BME280;61691;53.072;6.582;2022-12-20T03:51:09;101029.41;;;9.25;77.98
73457;BME280;61691;53.072;6.582;2022-12-20T03:53:36;101029.19;;;9.17;78.16
73457;BME280;61691;53.072;6.582;2022-12-20T03:56:03;101051.91;;;9.30;78.22
73457;BME280;61691;53.072;6.582;2022-12-20T03:58:30;101062.59;;;9.29;78.79
73457;BME280;61691;53.072;6.582;2022-12-20T04:00:57;101045.75;;;9.19;78.44
73457;BME280;61691;53.072;6.582;2022-12-20T04:03:24;101056.34;;;9.19;78.72
73457;BME280;61691;53.072;6.582;2022-12-20T04:05:51;101008.03;;;8.83;78.69
73457;BME280;61691;53.072;6.582;2022-12-20T04:08:18;101048.41;;;9.08;78.84
73457;BME280;61691;53.072;6.582;2022-12-20T04:10:45;101069.69;;;9.17;78.79
73457;BME280;61691;53.072;6.582;2022-12-20T04:13:30;101086.91;;;9.23;79.06
73457;BME280;61691;53.072;6.582;2022-12-20T04:15:57;101078.97;;;9.23;79.20
73457;BME280;61691;53.072;6.582;2022-12-20T04:18:26;101069.56;;;9.19;79.78
73457;BME280;61691;53.072;6.582;2022-12-20T04:20:53;101070.28;;;9.21;79.19
73457;BME280;61691;53.072;6.582;2022-12-20T04:23:20;101050.22;;;9.18;79.86
73457;BME280;61691;53.072;6.582;2022-12-20T04:25:47;101045.53;;;9.22;79.29
73457;BME280;61691;53.072;6.582;2022-12-20T04:28:14;101043.63;;;9.24;79.34
73457;BME280;61691;53.072;6.582;2022-12-20T04:30:41;101044.56;;;9.23;79.56
73457;BME280;61691;53.072;6.582;2022-12-20T04:33:07;101051.78;;;9.32;79.57
73457;BME280;61691;53.072;6.582;2022-12-20T04:35:36;101030.84;;;9.29;79.31
73457;BME280;61691;53.072;6.582;2022-12-20T04:38:03;101030.63;;;9.32;79.34
73457;BME280;61691;53.072;6.582;2022-12-20T04:40:30;101008.03;;;9.17;79.67
73457;BME280;61691;53.072;6.582;2022-12-20T04:42:56;101012.56;;;9.26;79.61
73457;BME280;61691;53.072;6.582;2022-12-20T04:45:23;101019.19;;;9.31;79.57
73457;BME280;61691;53.072;6.582;2022-12-20T04:47:50;101036.84;;;9.42;79.34
73457;BME280;61691;53.072;6.582;2022-12-20T04:50:17;101033.97;;;9.45;80.06
73457;BME280;61691;53.072;6.582;2022-12-20T04:52:44;101045.25;;;9.47;79.62
73457;BME280;61691;53.072;6.582;2022-12-20T04:55:30;101024.84;;;9.38;79.38
73457;BME280;61691;53.072;6.582;2022-12-20T04:57:57;101019.78;;;9.35;79.52
73457;BME280;61691;53.072;6.582;2022-12-20T05:00:33;101026.63;;;9.49;79.02
73457;BME280;61691;53.072;6.582;2022-12-20T05:03:00;100999.56;;;9.34;79.45
73457;BME280;61691;53.072;6.582;2022-12-20T05:05:27;101034.78;;;9.57;79.72
73457;BME280;61691;53.072;6.582;2022-12-20T05:07:54;101019.75;;;9.57;79.61
73457;BME280;61691;53.072;6.582;2022-12-20T05:10:22;101023.13;;;9.59;79.76
73457;BME280;61691;53.072;6.582;2022-12-20T05:12:49;101008.31;;;9.57;79.03
73457;BME280;61691;53.072;6.582;2022-12-20T05:15:16;100975.66;;;9.47;79.39
73457;BME280;61691;53.072;6.582;2022-12-20T05:17:43;100995.81;;;9.59;79.13
73457;BME280;61691;53.072;6.582;2022-12-20T05:20:10;100973.34;;;9.42;79.11
73457;BME280;61691;53.072;6.582;2022-12-20T05:22:37;100993.28;;;9.57;79.22
73457;BME280;61691;53.072;6.582;2022-12-20T05:25:22;101000.03;;;9.61;79.54
73457;BME280;61691;53.072;6.582;2022-12-20T05:28:08;101001.19;;;9.68;79.67
73457;BME280;61691;53.072;6.582;2022-12-20T05:30:35;100983.41;;;9.59;78.91
73457;BME280;61691;53.072;6.582;2022-12-20T05:33:01;100981.00;;;9.56;79.26
73457;BME280;61691;53.072;6.582;2022-12-20T05:35:28;100987.97;;;9.68;79.28
73457;BME280;61691;53.072;6.582;2022-12-20T05:37:55;100924.31;;;9.38;79.09
73457;BME280;61691;53.072;6.582;2022-12-20T05:40:22;100983.59;;;9.79;78.91
73457;BME280;61691;53.072;6.582;2022-12-20T05:42:49;100965.84;;;9.69;79.18
73457;BME280;61691;53.072;6.582;2022-12-20T05:45:15;100959.94;;;9.66;79.28
73457;BME280;61691;53.072;6.582;2022-12-20T05:47:42;100954.88;;;9.63;78.90
73457;BME280;61691;53.072;6.582;2022-12-20T05:50:09;100930.50;;;9.48;78.68
73457;BME280;61691;53.072;6.582;2022-12-20T05:52:44;100934.47;;;9.54;79.24
73457;BME280;61691;53.072;6.582;2022-12-20T05:55:11;100985.47;;;9.88;78.94
73457;BME280;61691;53.072;6.582;2022-12-20T05:57:39;100972.63;;;9.83;79.02
73457;BME280;61691;53.072;6.582;2022-12-20T06:00:06;100968.88;;;9.86;79.47
73457;BME280;61691;53.072;6.582;2022-12-20T06:02:33;100984.97;;;9.94;78.46
73457;BME280;61691;53.072;6.582;2022-12-20T06:05:00;100952.41;;;9.82;78.58
73457;BME280;61691;53.072;6.582;2022-12-20T06:07:28;100960.44;;;9.92;79.05
73457;BME280;61691;53.072;6.582;2022-12-20T06:09:55;100966.56;;;9.92;78.78
73457;BME280;61691;53.072;6.582;2022-12-20T06:12:22;100969.09;;;9.94;78.87
73457;BME280;61691;53.072;6.582;2022-12-20T06:14:49;100967.16;;;9.96;78.78
73457;BME280;61691;53.072;6.582;2022-12-20T06:17:16;100944.84;;;9.78;78.48
73457;BME280;61691;53.072;6.582;2022-12-20T06:19:43;100986.41;;;9.98;78.45
73457;BME280;61691;53.072;6.582;2022-12-20T06:22:10;100975.09;;;9.96;77.45
73457;BME280;61691;53.072;6.582;2022-12-20T06:24:36;100948.94;;;9.82;77.19
73457;BME280;61691;53.072;6.582;2022-12-20T06:27:13;100950.59;;;9.83;76.97
73457;BME280;61691;53.072;6.582;2022-12-20T06:29:39;100966.19;;;9.97;77.82
73457;BME280;61691;53.072;6.582;2022-12-20T06:32:06;100963.53;;;9.97;77.61
73457;BME280;61691;53.072;6.582;2022-12-20T06:34:33;100961.34;;;10.02;77.76
73457;BME280;61691;53.072;6.582;2022-12-20T06:37:00;100959.16;;;10.07;77.49
73457;BME280;61691;53.072;6.582;2022-12-20T06:39:27;100961.97;;;10.15;77.54
73457;BME280;61691;53.072;6.582;2022-12-20T06:41:53;100970.94;;;10.14;77.69
73457;BME280;61691;53.072;6.582;2022-12-20T06:44:20;100965.63;;;10.14;77.75
73457;BME280;61691;53.072;6.582;2022-12-20T06:46:47;100953.16;;;10.05;77.97
73457;BME280;61691;53.072;6.582;2022-12-20T06:49:13;100966.97;;;10.08;77.73
73457;BME280;61691;53.072;6.582;2022-12-20T06:51:40;100951.72;;;10.01;77.92
73457;BME280;61691;53.072;6.582;2022-12-20T06:54:07;100979.13;;;10.11;77.39
73457;BME280;61691;53.072;6.582;2022-12-20T06:56:33;100975.06;;;10.07;78.05
73457;BME280;61691;53.072;6.582;2022-12-20T06:59:07;100981.16;;;10.07;78.55
73457;BME280;61691;53.072;6.582;2022-12-20T07:01:33;100959.94;;;9.98;78.86
73457;BME280;61691;53.072;6.582;2022-12-20T07:04:00;100968.06;;;10.06;78.35
73457;BME280;61691;53.072;6.582;2022-12-20T07:06:27;100949.97;;;9.90;78.59
73457;BME280;61691;53.072;6.582;2022-12-20T07:08:55;100970.53;;;9.98;77.94
73457;BME280;61691;53.072;6.582;2022-12-20T07:11:21;100962.81;;;9.95;78.75
73457;BME280;61691;53.072;6.582;2022-12-20T07:13:48;100954.88;;;9.95;78.92
73457;BME280;61691;53.072;6.582;2022-12-20T07:16:15;100913.97;;;9.67;78.87
73457;BME280;61691;53.072;6.582;2022-12-20T07:18:42;100975.81;;;9.98;79.20
73457;BME280;61691;53.072;6.582;2022-12-20T07:21:09;100943.63;;;9.82;79.30
73457;BME280;61691;53.072;6.582;2022-12-20T07:23:35;100956.81;;;9.93;79.80
73457;BME280;61691;53.072;6.582;2022-12-20T07:26:02;100936.91;;;9.78;79.17
73457;BME280;61691;53.072;6.582;2022-12-20T07:28:29;100954.88;;;9.95;78.72
73457;BME280;61691;53.072;6.582;2022-12-20T07:31:00;100974.97;;;9.97;78.44
73457;BME280;61691;53.072;6.582;2022-12-20T07:33:28;100950.34;;;9.86;78.49
73457;BME280;61691;53.072;6.582;2022-12-20T07:36:02;100976.38;;;10.01;78.92
73457;BME280;61691;53.072;6.582;2022-12-20T07:38:29;100945.75;;;9.88;78.19
73457;BME280;61691;53.072;6.582;2022-12-20T07:40:56;100922.69;;;9.79;78.10
73457;BME280;61691;53.072;6.582;2022-12-20T07:43:23;100930.00;;;9.86;78.41
73457;BME280;61691;53.072;6.582;2022-12-20T07:45:55;100902.63;;;9.76;78.08
73457;BME280;61691;53.072;6.582;2022-12-20T07:48:23;100961.22;;;10.03;78.42
73457;BME280;61691;53.072;6.582;2022-12-20T07:50:52;100962.06;;;10.04;78.40
73457;BME280;61691;53.072;6.582;2022-12-20T07:53:21;100952.44;;;10.03;78.25
73457;BME280;61691;53.072;6.582;2022-12-20T07:55:49;100950.03;;;10.00;78.76
73457;BME280;61691;53.072;6.582;2022-12-20T07:58:17;100954.00;;;10.05;78.51
73457;BME280;61691;53.072;6.582;2022-12-20T08:00:44;100924.69;;;9.86;78.85
73457;BME280;61691;53.072;6.582;2022-12-20T08:03:12;100956.53;;;10.07;78.64
73457;BME280;61691;53.072;6.582;2022-12-20T08:05:44;100927.81;;;9.91;78.39
73457;BME280;61691;53.072;6.582;2022-12-20T08:08:12;100945.72;;;9.99;78.38
73457;BME280;61691;53.072;6.582;2022-12-20T08:10:40;100946.38;;;10.12;77.96
73457;BME280;61691;53.072;6.582;2022-12-20T08:13:07;100945.41;;;10.13;77.82
73457;BME280;61691;53.072;6.582;2022-12-20T08:15:35;100932.94;;;10.04;78.16
73457;BME280;61691;53.072;6.582;2022-12-20T08:18:02;100951.66;;;10.12;78.36
73457;BME280;61691;53.072;6.582;2022-12-20T08:20:29;100950.44;;;10.16;78.72
73457;BME280;61691;53.072;6.582;2022-12-20T08:22:55;100955.88;;;10.15;78.77
73457;BME280;61691;53.072;6.582;2022-12-20T08:25:23;100938.41;;;10.12;78.29
73457;BME280;61691;53.072;6.582;2022-12-20T08:27:49;100934.81;;;10.13;78.80
73457;BME280;61691;53.072;6.582;2022-12-20T08:30:16;100948.28;;;10.21;78.81
73457;BME280;61691;53.072;6.582;2022-12-20T08:32:44;100943.22;;;10.18;78.75
73457;BME280;61691;53.072;6.582;2022-12-20T08:35:10;100934.44;;;10.18;78.92
73457;BME280;61691;53.072;6.582;2022-12-20T08:37:38;100929.97;;;10.18;78.47
73457;BME280;61691;53.072;6.582;2022-12-20T08:40:05;100933.34;;;10.20;78.57
73457;BME280;61691;53.072;6.582;2022-12-20T08:42:33;100899.97;;;9.97;78.71
73457;BME280;61691;53.072;6.582;2022-12-20T08:45:00;100942.03;;;10.22;78.84
73457;BME280;61691;53.072;6.582;2022-12-20T08:47:28;100917.94;;;10.14;78.41
73457;BME280;61691;53.072;6.582;2022-12-20T08:49:55;100888.22;;;9.90;78.81
73457;BME280;61691;53.072;6.582;2022-12-20T08:52:22;100934.75;;;10.24;78.41
73457;BME280;61691;53.072;6.582;2022-12-20T08:54:49;100914.59;;;10.12;77.78
73457;BME280;61691;53.072;6.582;2022-12-20T08:57:16;100912.66;;;10.14;77.97
73457;BME280;61691;53.072;6.582;2022-12-20T08:59:43;100881.31;;;9.98;77.80
73457;BME280;61691;53.072;6.582;2022-12-20T09:02:09;100922.47;;;10.23;77.67
73457;BME280;61691;53.072;6.582;2022-12-20T09:04:36;100905.31;;;10.18;77.04
73457;BME280;61691;53.072;6.582;2022-12-20T09:07:03;100924.47;;;10.31;77.65
73457;BME280;61691;53.072;6.582;2022-12-20T09:09:30;100920.00;;;10.31;76.93
73457;BME280;61691;53.072;6.582;2022-12-20T09:11:57;100928.94;;;10.30;77.41
73457;BME280;61691;53.072;6.582;2022-12-20T09:14:24;100910.47;;;10.19;76.63
73457;BME280;61691;53.072;6.582;2022-12-20T09:16:51;100909.69;;;10.28;76.92
73457;BME280;61691;53.072;6.582;2022-12-20T09:19:17;100903.56;;;10.28;76.57
73457;BME280;61691;53.072;6.582;2022-12-20T09:21:44;100894.34;;;10.22;76.28
73457;BME280;61691;53.072;6.582;2022-12-20T09:24:11;100889.28;;;10.19;76.61
73457;BME280;61691;53.072;6.582;2022-12-20T09:26:38;100896.88;;;10.33;76.62
73457;BME280;61691;53.072;6.582;2022-12-20T09:29:06;100881.13;;;10.32;76.79
73457;BME280;61691;53.072;6.582;2022-12-20T09:31:33;100884.88;;;10.29;76.81
73457;BME280;61691;53.072;6.582;2022-12-20T09:34:00;100894.94;;;10.35;75.81
73457;BME280;61691;53.072;6.582;2022-12-20T09:36:28;100914.84;;;10.51;76.16
73457;BME280;61691;53.072;6.582;2022-12-20T09:38:55;100935.06;;;10.52;75.58
73457;BME280;61691;53.072;6.582;2022-12-20T09:41:34;100894.66;;;10.38;76.00
73457;BME280;61691;53.072;6.582;2022-12-20T09:44:30;100912.19;;;10.51;75.80
73457;BME280;61691;53.072;6.582;2022-12-20T09:47:03;100926.72;;;10.56;75.92
73457;BME280;61691;53.072;6.582;2022-12-20T09:49:40;100910.75;;;10.46;75.47
73457;BME280;61691;53.072;6.582;2022-12-20T09:59:50;100898.47;;;10.45;75.42
73457;BME280;61691;53.072;6.582;2022-12-20T10:02:22;100905.09;;;10.61;75.47
73457;BME280;61691;53.072;6.582;2022-12-20T10:05:18;100899.25;;;10.57;75.41
73457;BME280;61691;53.072;6.582;2022-12-20T10:08:07;100906.78;;;10.62;75.61
73457;BME280;61691;53.072;6.582;2022-12-20T10:19:09;100923.41;;;10.64;75.06
73457;BME280;61691;53.072;6.582;2022-12-20T10:21:45;100918.81;;;10.66;75.25
73457;BME280;61691;53.072;6.582;2022-12-20T10:24:35;100889.13;;;10.41;74.91
73457;BME280;61691;53.072;6.582;2022-12-20T10:27:16;100917.38;;;10.62;74.84
73457;BME280;61691;53.072;6.582;2022-12-20T10:29:44;100917.25;;;10.63;75.37
73457;BME280;61691;53.072;6.582;2022-12-20T10:32:15;100900.47;;;10.53;74.84
73457;BME280;61691;53.072;6.582;2022-12-20T10:34:58;100911.94;;;10.63;74.74
73457;BME280;61691;53.072;6.582;2022-12-20T10:37:26;100893.09;;;10.57;75.14
73457;BME280;61691;53.072;6.582;2022-12-20T10:39:53;100898.81;;;10.62;75.19
73457;BME280;61691;53.072;6.582;2022-12-20T10:42:26;100895.91;;;10.65;75.02
73457;BME280;61691;53.072;6.582;2022-12-20T10:44:56;100896.47;;;10.68;75.24
73457;BME280;61691;53.072;6.582;2022-12-20T10:47:34;100889.78;;;10.64;75.25
73457;BME280;61691;53.072;6.582;2022-12-20T10:50:18;100913.22;;;10.69;75.37
73457;BME280;61691;53.072;6.582;2022-12-20T10:55:40;100875.09;;;10.60;75.74
73457;BME280;61691;53.072;6.582;2022-12-20T10:58:27;100864.66;;;10.59;75.52
73457;BME280;61691;53.072;6.582;2022-12-20T11:01:12;100887.84;;;10.76;75.09
73457;BME280;61691;53.072;6.582;2022-12-20T11:04:01;100886.19;;;10.75;75.01
73457;BME280;61691;53.072;6.582;2022-12-20T11:06:48;100837.63;;;10.34;76.56
73457;BME280;61691;53.072;6.582;2022-12-20T11:09:24;100867.47;;;10.67;76.03
73457;BME280;61691;53.072;6.582;2022-12-20T11:12:16;100877.78;;;10.70;75.60
73457;BME280;61691;53.072;6.582;2022-12-20T11:14:44;100860.03;;;10.61;75.59
73457;BME280;61691;53.072;6.582;2022-12-20T11:17:33;100874.44;;;10.68;75.61
73457;BME280;61691;53.072;6.582;2022-12-20T11:37:17;100879.03;;;10.66;75.68
73457;BME280;61691;53.072;6.582;2022-12-20T11:45:27;100881.25;;;10.61;76.71
73457;BME280;61691;53.072;6.582;2022-12-20T11:51:01;100880.28;;;10.62;77.27
73457;BME280;61691;53.072;6.582;2022-12-20T11:54:04;100861.03;;;10.60;76.71
73457;BME280;61691;53.072;6.582;2022-12-20T11:56:43;100858.47;;;10.48;76.15
73457;BME280;61691;53.072;6.582;2022-12-20T12:02:04;100862.97;;;10.58;75.91
73457;BME280;61691;53.072;6.582;2022-12-20T12:04:40;100866.47;;;10.58;76.34
73457;BME280;61691;53.072;6.582;2022-12-20T12:07:30;100830.81;;;10.41;77.43
73457;BME280;61691;53.072;6.582;2022-12-20T12:10:17;100854.06;;;10.59;76.77
73457;BME280;61691;53.072;6.582;2022-12-20T12:13:30;100841.47;;;10.51;76.62
73457;BME280;61691;53.072;6.582;2022-12-20T12:15:47;100838.94;;;10.50;77.03
73457;BME280;61691;53.072;6.582;2022-12-20T12:20:58;100856.41;;;10.62;77.13
73457;BME280;61691;53.072;6.582;2022-12-20T12:26:09;100853.09;;;10.60;77.22
73457;BME280;61691;53.072;6.582;2022-12-20T12:28:38;100859.34;;;10.59;77.30
73457;BME280;61691;53.072;6.582;2022-12-20T12:31:15;100856.25;;;10.54;77.53
73457;BME280;61691;53.072;6.582;2022-12-20T12:33:59;100844.78;;;10.53;77.80
73457;BME280;61691;53.072;6.582;2022-12-20T12:36:41;100849.84;;;10.56;78.38
73457;BME280;61691;53.072;6.582;2022-12-20T12:41:52;100860.44;;;10.56;78.06
73457;BME280;61691;53.072;6.582;2022-12-20T12:47:12;100850.81;;;10.55;78.28
73457;BME280;61691;53.072;6.582;2022-12-20T12:49:47;100776.13;;;10.10;78.31
73457;BME280;61691;53.072;6.582;2022-12-20T12:55:02;100800.59;;;10.23;78.85
73457;BME280;61691;53.072;6.582;2022-12-20T12:57:57;100847.44;;;10.53;79.35
73457;BME280;61691;53.072;6.582;2022-12-20T13:00:46;100849.25;;;10.53;78.90
73457;BME280;61691;53.072;6.582;2022-12-20T13:03:16;100861.81;;;10.51;78.92
73457;BME280;61691;53.072;6.582;2022-12-20T13:09:16;100840.88;;;10.47;78.91
73457;BME280;61691;53.072;6.582;2022-12-20T13:11:43;100772.53;;;10.11;78.77
73457;BME280;61691;53.072;6.582;2022-12-20T13:16:44;100830.56;;;10.44;78.81
73457;BME280;61691;53.072;6.582;2022-12-20T13:19:34;100837.38;;;10.47;78.83
73457;BME280;61691;53.072;6.582;2022-12-20T13:24:58;100850.94;;;10.54;79.04
73457;BME280;61691;53.072;6.582;2022-12-20T13:27:33;100838.66;;;10.53;79.42
73457;BME280;61691;53.072;6.582;2022-12-20T13:32:52;100837.31;;;10.58;79.53
73457;BME280;61691;53.072;6.582;2022-12-20T13:40:45;100844.53;;;10.56;79.04
73457;BME280;61691;53.072;6.582;2022-12-20T13:46:20;100833.09;;;10.56;79.12
73457;BME280;61691;53.072;6.582;2022-12-20T13:49:02;100831.72;;;10.52;79.74
73457;BME280;61691;53.072;6.582;2022-12-20T13:51:30;100823.28;;;10.46;79.30
73457;BME280;61691;53.072;6.582;2022-12-20T13:54:00;100813.53;;;10.47;79.49
73457;BME280;61691;53.072;6.582;2022-12-20T13:56:36;100831.41;;;10.55;79.61
73457;BME280;61691;53.072;6.582;2022-12-20T13:59:13;100815.34;;;10.46;79.62
73457;BME280;61691;53.072;6.582;2022-12-20T14:01:49;100820.25;;;10.51;79.38
73457;BME280;61691;53.072;6.582;2022-12-20T14:04:18;100824.59;;;10.52;79.23
73457;BME280;61691;53.072;6.582;2022-12-20T14:06:57;100837.84;;;10.62;79.82
73457;BME280;61691;53.072;6.582;2022-12-20T14:09:31;100828.91;;;10.53;79.80
73457;BME280;61691;53.072;6.582;2022-12-20T14:12:11;100830.19;;;10.59;79.49
73457;BME280;61691;53.072;6.582;2022-12-20T14:14:46;100842.31;;;10.61;79.41
73457;BME280;61691;53.072;6.582;2022-12-20T14:17:31;100851.09;;;10.62;79.70
73457;BME280;61691;53.072;6.582;2022-12-20T14:25:41;100846.78;;;10.61;80.06
73457;BME280;61691;53.072;6.582;2022-12-20T14:30:57;100844.25;;;10.50;79.85
73457;BME280;61691;53.072;6.582;2022-12-20T14:33:29;100842.03;;;10.55;79.54
73457;BME280;61691;53.072;6.582;2022-12-20T14:36:06;100826.06;;;10.45;80.25
73457;BME280;61691;53.072;6.582;2022-12-20T14:38:34;100843.44;;;10.59;79.98
73457;BME280;61691;53.072;6.582;2022-12-20T14:41:01;100846.22;;;10.57;80.30
73457;BME280;61691;53.072;6.582;2022-12-20T14:43:32;100845.13;;;10.60;80.19
73457;BME280;61691;53.072;6.582;2022-12-20T14:46:08;100810.59;;;10.40;79.61
73457;BME280;61691;53.072;6.582;2022-12-20T14:48:42;100828.06;;;10.53;79.80
73457;BME280;61691;53.072;6.582;2022-12-20T14:51:09;100815.63;;;10.43;79.95
73457;BME280;61691;53.072;6.582;2022-12-20T14:53:37;100829.44;;;10.47;80.04
73457;BME280;61691;53.072;6.582;2022-12-20T14:56:13;100785.84;;;10.30;80.19
73457;BME280;61691;53.072;6.582;2022-12-20T14:58:40;100863.13;;;10.66;80.19